createdAt,value
2023-01-23T00:01:29.197Z,8.63
2023-01-23T00:03:56.640Z,8.57
2023-01-23T00:06:24.236Z,7.70
2023-01-23T00:08:51.201Z,7.90
2023-01-23T00:11:21.111Z,7.68
2023-01-23T00:13:48.588Z,9.93
2023-01-23T00:16:18.913Z,9.80
2023-01-23T00:18:46.765Z,10.82
2023-01-23T00:21:17.953Z,10.82
2023-01-23T00:23:47.065Z,10.60
2023-01-23T00:26:17.267Z,10.30
2023-01-23T00:28:45.096Z,10.00
2023-01-23T00:31:18.839Z,10.45
2023-01-23T00:33:46.362Z,10.40
2023-01-23T00:36:14.452Z,11.77
2023-01-23T00:38:42.082Z,11.85
2023-01-23T00:41:08.982Z,12.00
2023-01-23T00:43:35.674Z,11.40
2023-01-23T00:46:02.533Z,6.30
2023-01-23T00:48:29.274Z,7.35
2023-01-23T00:50:56.219Z,6.13
2023-01-23T00:53:23.390Z,6.93
2023-01-23T00:55:50.203Z,13.02
2023-01-23T00:58:16.923Z,12.55
2023-01-23T01:00:43.672Z,9.45
2023-01-23T01:03:10.540Z,8.20
2023-01-23T01:05:37.441Z,6.63
2023-01-23T01:08:05.359Z,4.22
2023-01-23T01:10:32.994Z,3.50
2023-01-23T01:13:01.977Z,3.63
2023-01-23T01:15:29.495Z,5.32
2023-01-23T01:17:57.039Z,4.53
2023-01-23T01:20:26.052Z,4.25
2023-01-23T01:22:54.265Z,11.60
2023-01-23T01:25:21.477Z,10.98
2023-01-23T01:27:48.459Z,12.20
2023-01-23T01:30:19.632Z,11.43
2023-01-23T01:32:46.611Z,12.35
2023-01-23T01:35:13.567Z,14.13
2023-01-23T01:37:41.869Z,13.60
2023-01-23T01:40:20.231Z,11.75
2023-01-23T01:43:00.499Z,11.13
2023-01-23T01:46:01.378Z,14.20
2023-01-23T01:48:52.090Z,13.95
2023-01-23T01:51:24.620Z,15.60
2023-01-23T01:53:59.003Z,13.00
2023-01-23T01:56:26.823Z,14.85
2023-01-23T01:58:54.749Z,14.52
2023-01-23T02:01:21.504Z,16.15
2023-01-23T02:03:50.919Z,13.93
2023-01-23T02:06:18.082Z,15.68
2023-01-23T02:08:49.027Z,14.40
2023-01-23T02:11:18.482Z,14.57
2023-01-23T02:13:46.090Z,13.27
2023-01-23T02:16:18.479Z,14.93
2023-01-23T02:18:49.240Z,14.00
2023-01-23T02:21:20.283Z,16.10
2023-01-23T02:24:42.625Z,17.08
2023-01-23T02:27:09.338Z,15.18
2023-01-23T02:29:48.382Z,14.70
2023-01-23T02:32:15.138Z,14.98
2023-01-23T02:34:42.714Z,15.63
2023-01-23T02:37:09.608Z,14.05
2023-01-23T02:39:37.418Z,13.85
2023-01-23T02:42:05.793Z,14.45
2023-01-23T02:44:32.707Z,14.60
2023-01-23T02:47:08.649Z,15.98
2023-01-23T02:49:35.391Z,15.73
2023-01-23T02:52:03.333Z,16.65
2023-01-23T02:54:30.036Z,14.77
2023-01-23T02:56:57.220Z,14.95
2023-01-23T02:59:42.744Z,17.88
2023-01-23T03:02:10.044Z,16.58
2023-01-23T03:04:36.854Z,15.75
2023-01-23T03:07:03.719Z,15.80
2023-01-23T03:09:30.891Z,16.63
2023-01-23T03:11:57.734Z,16.83
2023-01-23T03:14:25.733Z,15.93
2023-01-23T03:16:54.029Z,15.75
2023-01-23T03:19:23.520Z,16.50
2023-01-23T03:21:51.282Z,17.08
2023-01-23T03:24:19.011Z,16.60
2023-01-23T03:26:46.952Z,16.35
2023-01-23T03:29:42.350Z,17.30
2023-01-23T03:32:10.196Z,17.15
2023-01-23T03:34:37.082Z,16.88
2023-01-23T03:37:04.229Z,15.93
2023-01-23T03:39:49.494Z,18.23
2023-01-23T03:42:16.178Z,16.40
2023-01-23T03:44:43.100Z,16.55
2023-01-23T03:47:09.875Z,15.85
2023-01-23T03:49:36.901Z,14.85
2023-01-23T03:52:03.704Z,15.05
2023-01-23T03:54:30.551Z,15.38
2023-01-23T03:56:57.288Z,15.25
2023-01-23T03:59:24.011Z,14.48
2023-01-23T04:01:50.690Z,15.23
2023-01-23T04:04:17.364Z,15.25
2023-01-23T04:06:44.028Z,15.23
2023-01-23T04:09:10.784Z,14.77
2023-01-23T04:11:37.511Z,15.80
2023-01-23T04:14:04.201Z,16.05
2023-01-23T04:16:31.116Z,15.75
2023-01-23T04:18:57.949Z,16.05
2023-01-23T04:21:25.449Z,16.27
2023-01-23T04:23:52.165Z,15.60
2023-01-23T04:26:18.876Z,16.67
2023-01-23T04:28:45.680Z,15.68
2023-01-23T04:31:12.509Z,15.95
2023-01-23T04:33:39.261Z,15.05
2023-01-23T04:36:06.792Z,16.60
2023-01-23T04:38:34.832Z,17.02
2023-01-23T04:41:01.993Z,15.30
2023-01-23T04:43:28.673Z,16.13
2023-01-23T04:45:56.240Z,15.30
2023-01-23T04:48:23.405Z,16.90
2023-01-23T04:50:50.949Z,17.08
2023-01-23T04:53:17.881Z,17.00
2023-01-23T04:55:47.430Z,18.40
2023-01-23T04:58:14.208Z,17.80
2023-01-23T05:00:40.884Z,18.23
2023-01-23T05:03:07.575Z,17.38
2023-01-23T05:05:35.173Z,18.35
2023-01-23T05:08:02.017Z,18.73
2023-01-23T05:10:28.728Z,16.02
2023-01-23T05:12:55.613Z,19.35
2023-01-23T05:15:22.405Z,19.85
2023-01-23T05:17:49.704Z,18.33
2023-01-23T05:20:16.618Z,19.05
2023-01-23T05:22:52.423Z,17.83
2023-01-23T05:25:24.447Z,17.90
2023-01-23T05:27:51.702Z,19.30
2023-01-23T05:30:20.953Z,17.58
2023-01-23T05:32:48.186Z,20.70
2023-01-23T05:35:15.699Z,20.58
2023-01-23T05:37:42.456Z,20.25
2023-01-23T05:40:13.287Z,19.65
2023-01-23T05:42:40.087Z,21.10
2023-01-23T05:45:07.445Z,21.08
2023-01-23T05:47:34.436Z,20.55
2023-01-23T05:50:01.232Z,20.65
2023-01-23T05:52:28.209Z,21.80
2023-01-23T05:54:54.927Z,20.88
2023-01-23T05:57:21.906Z,21.55
2023-01-23T05:59:48.733Z,23.20
2023-01-23T06:02:15.619Z,21.25
2023-01-23T06:04:42.485Z,21.58
2023-01-23T06:07:17.247Z,22.27
2023-01-23T06:09:43.986Z,22.42
2023-01-23T06:12:11.073Z,23.70
2023-01-23T06:14:37.725Z,22.67
2023-01-23T06:17:05.004Z,23.48
2023-01-23T06:19:31.803Z,23.83
2023-01-23T06:21:58.574Z,23.52
2023-01-23T06:24:25.473Z,22.20
2023-01-23T06:26:52.168Z,23.70
2023-01-23T06:29:19.093Z,27.52
2023-01-23T06:31:47.546Z,27.95
2023-01-23T06:34:15.228Z,27.20
2023-01-23T06:36:42.448Z,27.45
2023-01-23T06:39:13.550Z,26.95
2023-01-23T06:41:40.247Z,27.83
2023-01-23T06:44:07.777Z,28.67
2023-01-23T06:46:34.965Z,28.77
2023-01-23T06:49:02.544Z,28.30
2023-01-23T06:51:30.649Z,31.02
2023-01-23T06:53:57.301Z,33.70
2023-01-23T06:56:24.255Z,32.83
2023-01-23T06:58:51.062Z,33.85
2023-01-23T07:01:19.375Z,35.55
2023-01-23T07:03:46.211Z,31.80
2023-01-23T07:06:14.347Z,32.95
2023-01-23T07:08:42.039Z,36.25
2023-01-23T07:11:09.815Z,36.75
2023-01-23T07:13:36.791Z,34.75
2023-01-23T07:16:03.915Z,34.45
2023-01-23T07:18:30.679Z,32.47
2023-01-23T07:20:57.454Z,37.20
2023-01-23T07:23:24.250Z,37.45
2023-01-23T07:25:51.272Z,35.13
2023-01-23T07:28:17.968Z,36.95
2023-01-23T07:30:44.918Z,36.40
2023-01-23T07:33:12.415Z,37.10
2023-01-23T07:35:39.755Z,37.05
2023-01-23T07:38:06.444Z,36.17
2023-01-23T07:40:33.175Z,35.97
2023-01-23T07:42:59.936Z,36.53
2023-01-23T07:45:26.611Z,37.78
2023-01-23T07:47:53.344Z,37.30
2023-01-23T07:50:20.254Z,39.50
2023-01-23T07:52:47.299Z,38.40
2023-01-23T07:55:14.124Z,35.95
2023-01-23T07:57:40.880Z,35.88
2023-01-23T08:00:10.876Z,34.28
2023-01-23T08:02:38.290Z,32.30
2023-01-23T08:05:05.782Z,38.17
2023-01-23T08:07:32.782Z,35.30
2023-01-23T08:10:00.131Z,35.83
2023-01-23T08:12:26.791Z,35.28
2023-01-23T08:14:53.444Z,35.50
2023-01-23T08:17:21.058Z,34.30
2023-01-23T08:19:47.743Z,34.45
2023-01-23T08:22:14.439Z,34.33
2023-01-23T08:24:41.197Z,35.78
2023-01-23T08:27:08.037Z,34.63
2023-01-23T08:29:34.974Z,33.05
2023-01-23T08:32:01.916Z,32.50
2023-01-23T08:34:28.779Z,34.63
2023-01-23T08:36:55.434Z,32.65
2023-01-23T08:39:22.119Z,31.23
2023-01-23T08:41:48.806Z,32.83
2023-01-23T08:44:15.449Z,31.65
2023-01-23T08:46:43.122Z,30.42
2023-01-23T08:49:11.292Z,33.53
2023-01-23T08:51:38.562Z,32.03
2023-01-23T08:54:06.119Z,31.50
2023-01-23T08:56:32.852Z,30.88
2023-01-23T08:58:59.491Z,32.70
2023-01-23T09:01:27.060Z,33.22
2023-01-23T09:03:54.394Z,29.77
2023-01-23T09:06:22.498Z,27.15
2023-01-23T09:08:49.708Z,29.63
2023-01-23T09:11:17.229Z,28.33
2023-01-23T09:13:46.366Z,28.00
2023-01-23T09:16:13.199Z,29.45
2023-01-23T09:18:39.976Z,26.92
2023-01-23T09:21:12.802Z,26.63
2023-01-23T09:23:39.657Z,25.92
2023-01-23T09:26:08.902Z,24.38
2023-01-23T09:28:37.130Z,23.70
2023-01-23T09:31:07.221Z,24.75
2023-01-23T09:33:34.836Z,23.08
2023-01-23T09:36:02.207Z,23.70
2023-01-23T09:38:28.919Z,22.17
2023-01-23T09:40:58.723Z,22.50
2023-01-23T09:43:31.502Z,23.63
2023-01-23T09:46:10.907Z,21.00
2023-01-23T09:48:40.412Z,23.60
2023-01-23T09:51:16.832Z,23.95
2023-01-23T09:53:43.679Z,24.58
2023-01-23T09:56:44.611Z,24.55
2023-01-23T09:59:29.749Z,23.65
2023-01-23T10:01:56.606Z,22.33
2023-01-23T10:04:23.614Z,23.15
2023-01-23T10:07:06.282Z,22.90
2023-01-23T10:09:51.659Z,21.63
2023-01-23T10:12:54.855Z,20.65
2023-01-23T10:15:31.277Z,19.23
2023-01-23T10:18:42.695Z,22.40
2023-01-23T10:21:25.162Z,20.13
2023-01-23T10:24:23.600Z,20.73
2023-01-23T10:26:50.545Z,20.95
2023-01-23T10:29:36.468Z,21.83
2023-01-23T10:32:06.233Z,20.95
2023-01-23T10:34:52.068Z,21.40
2023-01-23T10:37:36.885Z,21.95
2023-01-23T10:40:11.308Z,20.42
2023-01-23T10:42:38.232Z,21.17
2023-01-23T10:45:06.570Z,20.58
2023-01-23T10:47:55.098Z,20.52
2023-01-23T10:50:40.712Z,21.25
2023-01-23T10:53:16.814Z,22.85
2023-01-23T10:55:45.714Z,21.23
2023-01-23T10:58:31.132Z,20.75
2023-01-23T11:00:58.220Z,21.15
2023-01-23T11:03:32.517Z,21.20
2023-01-23T11:06:07.170Z,21.33
2023-01-23T11:08:38.770Z,19.83
2023-01-23T11:11:14.514Z,21.70
2023-01-23T11:13:45.858Z,19.67
2023-01-23T11:16:21.986Z,21.13
2023-01-23T11:19:22.503Z,21.48
2023-01-23T11:21:56.595Z,21.40
2023-01-23T11:24:40.280Z,22.70
2023-01-23T11:27:24.248Z,21.70
2023-01-23T11:30:08.452Z,21.42
2023-01-23T11:32:57.655Z,20.15
2023-01-23T11:35:46.301Z,20.63
2023-01-23T11:38:19.784Z,21.33
2023-01-23T11:40:51.700Z,21.48
2023-01-23T11:43:18.935Z,20.80
2023-01-23T11:46:12.807Z,19.63
2023-01-23T11:49:12.719Z,19.42
2023-01-23T11:51:49.894Z,20.95
2023-01-23T11:54:50.591Z,19.45
2023-01-23T11:57:38.201Z,19.75
2023-01-23T12:00:23.604Z,21.02
2023-01-23T12:03:15.043Z,19.70
2023-01-23T12:06:10.261Z,19.90
2023-01-23T12:09:12.141Z,20.20
2023-01-23T12:12:16.572Z,19.77
2023-01-23T12:15:17.280Z,18.45
2023-01-23T12:18:17.806Z,18.30
2023-01-23T12:21:03.160Z,18.30
2023-01-23T12:24:03.459Z,18.13
2023-01-23T12:26:32.480Z,17.60
2023-01-23T12:29:35.730Z,18.17
2023-01-23T12:32:28.458Z,18.58
2023-01-23T12:34:55.114Z,19.98
2023-01-23T12:37:40.349Z,18.55
2023-01-23T12:40:22.789Z,19.38
2023-01-23T12:43:09.151Z,21.90
2023-01-23T12:45:41.525Z,19.73
2023-01-23T12:48:13.676Z,19.48
2023-01-23T12:50:56.495Z,19.52
2023-01-23T12:53:24.022Z,19.38
2023-01-23T12:56:07.794Z,19.25
2023-01-23T12:58:37.267Z,20.08
2023-01-23T13:01:16.603Z,17.65
2023-01-23T13:03:58.527Z,17.48
2023-01-23T13:06:44.259Z,18.23
2023-01-23T13:09:42.229Z,17.88
2023-01-23T13:12:21.819Z,18.05
2023-01-23T13:15:14.311Z,18.98
2023-01-23T13:17:58.227Z,18.75
2023-01-23T13:20:48.730Z,19.02
2023-01-23T13:23:36.583Z,18.67
2023-01-23T13:26:15.645Z,17.95
2023-01-23T13:28:57.233Z,21.33
2023-01-23T13:31:47.181Z,18.42
2023-01-23T13:34:17.248Z,19.45
2023-01-23T13:36:45.927Z,19.45
2023-01-23T13:39:19.754Z,18.20
2023-01-23T13:41:47.632Z,18.70
2023-01-23T13:44:35.769Z,19.95
2023-01-23T14:21:52.136Z,18.95
2023-01-23T14:24:42.583Z,16.58
2023-01-23T14:27:21.636Z,16.85
2023-01-23T14:29:59.811Z,17.52
2023-01-23T14:32:29.810Z,16.60
2023-01-23T14:34:56.895Z,16.60
2023-01-23T14:37:23.821Z,18.38
2023-01-23T14:39:53.804Z,16.90
2023-01-23T14:42:27.878Z,15.20
2023-01-23T14:44:56.450Z,15.70
2023-01-23T14:47:37.922Z,16.63
2023-01-23T14:50:17.862Z,15.68
2023-01-23T14:52:44.952Z,16.42
2023-01-23T14:55:29.921Z,16.27
2023-01-23T14:57:59.591Z,15.85
2023-01-23T15:00:28.195Z,15.50
2023-01-23T15:02:56.347Z,17.02
2023-01-23T15:05:28.848Z,15.93
2023-01-23T15:07:55.991Z,17.00
2023-01-23T15:10:43.139Z,68.65
2023-01-23T15:13:21.036Z,22.00
2023-01-23T15:15:58.445Z,20.20
2023-01-23T15:18:30.446Z,17.77
2023-01-23T15:21:08.403Z,17.92
2023-01-23T15:23:37.647Z,18.77
2023-01-23T15:26:19.401Z,19.13
2023-01-23T15:28:53.524Z,22.67
2023-01-23T15:31:28.088Z,21.23
2023-01-23T15:33:56.116Z,20.42
2023-01-23T15:36:30.856Z,22.40
2023-01-23T15:38:59.275Z,20.50
2023-01-23T15:41:47.752Z,22.33
2023-01-23T15:44:17.073Z,22.02
2023-01-23T15:46:44.072Z,21.98
2023-01-23T15:49:19.914Z,21.88
2023-01-23T15:51:52.017Z,21.85
2023-01-23T15:54:24.257Z,20.88
2023-01-23T15:57:05.561Z,25.70
2023-01-23T15:59:34.317Z,23.08
2023-01-23T16:02:01.135Z,24.02
2023-01-23T16:04:27.849Z,21.88
2023-01-23T16:06:54.678Z,21.60
2023-01-23T16:09:31.364Z,24.58
2023-01-23T16:11:59.840Z,23.92
2023-01-23T16:14:26.925Z,24.02
2023-01-23T16:16:54.390Z,19.88
2023-01-23T16:19:21.281Z,26.45
2023-01-23T16:22:03.220Z,29.33
2023-01-23T16:24:36.484Z,25.55
2023-01-23T16:27:04.239Z,24.10
2023-01-23T16:29:33.244Z,22.20
2023-01-23T16:32:02.353Z,25.30
2023-01-23T16:34:29.299Z,20.50
2023-01-23T16:36:58.843Z,20.65
2023-01-23T16:39:33.440Z,20.55
2023-01-23T16:42:00.164Z,23.20
2023-01-23T16:44:27.254Z,25.05
2023-01-23T16:46:54.012Z,23.40
2023-01-23T16:49:21.342Z,24.00
2023-01-23T16:51:56.380Z,24.30
2023-01-23T16:54:23.644Z,24.52
2023-01-23T16:56:52.674Z,24.25
2023-01-23T16:59:26.354Z,21.88
2023-01-23T17:01:53.609Z,22.75
2023-01-23T17:04:21.510Z,24.98
2023-01-23T17:06:49.195Z,23.17
2023-01-23T17:09:17.309Z,21.40
2023-01-23T17:12:04.330Z,23.50
2023-01-23T17:14:32.414Z,25.17
2023-01-23T17:17:06.070Z,25.52
2023-01-23T17:19:35.551Z,23.55
2023-01-23T17:22:05.763Z,23.60
2023-01-23T17:24:32.638Z,23.48
2023-01-23T17:26:59.366Z,23.48
2023-01-23T17:29:26.222Z,23.65
2023-01-23T17:31:53.234Z,24.88
2023-01-23T17:34:24.985Z,24.65
2023-01-23T17:36:54.363Z,24.13
2023-01-23T17:39:21.475Z,25.52
2023-01-23T17:41:48.253Z,25.35
2023-01-23T17:44:15.021Z,25.80
2023-01-23T17:46:42.475Z,25.23
2023-01-23T17:49:30.138Z,25.75
2023-01-23T17:51:58.996Z,25.48
2023-01-23T17:54:26.425Z,28.45
2023-01-23T17:56:53.584Z,25.05
2023-01-23T17:59:20.526Z,25.80
2023-01-23T18:01:50.147Z,24.90
2023-01-23T18:04:19.825Z,24.70
2023-01-23T18:06:46.976Z,24.33
2023-01-23T18:09:14.202Z,24.95
2023-01-23T18:11:49.685Z,24.20
2023-01-23T18:14:46.912Z,27.20
2023-01-23T18:17:43.756Z,26.15
2023-01-23T18:20:21.964Z,27.13
2023-01-23T18:22:50.369Z,28.75
2023-01-23T18:25:19.286Z,27.13
2023-01-23T18:27:50.288Z,25.90
2023-01-23T18:30:21.011Z,26.50
2023-01-23T18:32:56.529Z,26.65
2023-01-23T18:35:35.535Z,27.08
2023-01-23T18:38:05.164Z,25.67
2023-01-23T18:40:46.877Z,26.38
2023-01-23T18:43:42.374Z,27.45
2023-01-23T18:46:15.499Z,27.52
2023-01-23T18:48:44.032Z,27.42
2023-01-23T18:51:22.610Z,26.13
2023-01-23T18:53:55.607Z,31.52
2023-01-23T18:56:29.679Z,26.80
2023-01-23T18:59:12.807Z,26.85
2023-01-23T19:01:52.124Z,28.50
2023-01-23T19:04:41.037Z,27.00
2023-01-23T19:07:19.289Z,26.63
2023-01-23T19:09:47.073Z,27.20
2023-01-23T19:12:41.004Z,26.67
2023-01-23T19:15:36.368Z,29.10
2023-01-23T19:18:39.050Z,30.02
2023-01-23T19:21:09.440Z,29.77
2023-01-23T19:23:47.630Z,29.27
2023-01-23T19:26:16.163Z,30.65
2023-01-23T19:28:43.392Z,29.48
2023-01-23T19:31:28.389Z,29.05
2023-01-23T19:33:56.245Z,29.10
2023-01-23T19:36:23.971Z,31.90
2023-01-23T19:38:52.506Z,28.65
2023-01-23T19:41:20.327Z,29.25
2023-01-23T19:43:55.074Z,28.75
2023-01-23T19:46:28.313Z,30.27
2023-01-23T19:48:56.023Z,30.30
2023-01-23T19:51:23.835Z,28.02
2023-01-23T19:53:50.480Z,26.90
2023-01-23T19:56:19.995Z,27.73
2023-01-23T19:58:48.001Z,26.30
2023-01-23T20:01:20.063Z,25.75
2023-01-23T20:03:46.842Z,25.60
2023-01-23T20:06:13.659Z,27.95
2023-01-23T20:08:40.332Z,27.60
2023-01-23T20:11:06.968Z,26.60
2023-01-23T20:13:33.626Z,26.80
2023-01-23T20:16:18.477Z,28.55
2023-01-23T20:18:47.992Z,29.25
2023-01-23T20:21:16.229Z,29.52
2023-01-23T20:23:42.951Z,27.60
2023-01-23T20:26:09.854Z,32.67
2023-01-23T20:28:36.978Z,30.05
2023-01-23T20:31:06.059Z,31.98
2023-01-23T20:33:33.740Z,29.70
2023-01-23T20:36:00.548Z,27.80
2023-01-23T20:38:27.649Z,31.15
2023-01-23T20:40:54.360Z,28.30
2023-01-23T20:43:21.084Z,28.27
2023-01-23T20:45:49.380Z,29.48
2023-01-23T20:48:16.686Z,30.90
2023-01-23T20:50:43.979Z,28.17
2023-01-23T20:53:29.877Z,29.98
2023-01-23T20:56:18.637Z,28.80
2023-01-23T20:59:06.234Z,32.92
2023-01-23T21:01:54.973Z,28.00
2023-01-23T21:04:23.788Z,28.00
2023-01-23T21:06:50.804Z,27.70
2023-01-23T21:09:17.951Z,31.77
2023-01-23T21:11:44.853Z,29.50
2023-01-23T21:14:12.765Z,28.23
2023-01-23T21:16:39.744Z,29.98
2023-01-23T21:19:06.429Z,30.35
2023-01-23T21:21:33.180Z,28.27
2023-01-23T21:24:00.209Z,28.10
2023-01-23T21:26:28.328Z,29.13
2023-01-23T21:28:56.603Z,30.77
2023-01-23T21:31:26.229Z,31.90
2023-01-23T21:33:53.633Z,29.17
2023-01-23T21:36:23.948Z,30.35
2023-01-23T21:38:51.627Z,31.73
2023-01-23T21:41:19.078Z,29.83
2023-01-23T21:43:46.512Z,31.17
2023-01-23T21:46:13.316Z,29.92
2023-01-23T21:48:40.035Z,32.30
2023-01-23T21:51:09.332Z,28.50
2023-01-23T21:53:37.512Z,32.13
2023-01-23T21:56:05.364Z,27.63
2023-01-23T21:58:32.570Z,26.88
2023-01-23T22:01:20.012Z,27.08
2023-01-23T22:03:46.837Z,26.10
2023-01-23T22:06:13.674Z,27.70
2023-01-23T22:08:40.667Z,28.40
2023-01-23T22:11:09.574Z,27.40
2023-01-23T22:13:36.633Z,25.02
2023-01-23T22:16:03.845Z,26.83
2023-01-23T22:18:31.329Z,26.92
2023-01-23T22:20:59.946Z,25.27
2023-01-23T22:23:27.223Z,29.17
2023-01-23T22:25:59.592Z,29.30
2023-01-23T22:28:26.554Z,26.73
2023-01-23T22:30:53.444Z,26.60
2023-01-23T22:33:22.386Z,26.38
2023-01-23T22:35:49.153Z,27.08
2023-01-23T22:38:16.589Z,28.92
2023-01-23T22:40:43.416Z,28.02
2023-01-23T22:43:10.382Z,28.25
2023-01-23T22:45:37.267Z,27.98
2023-01-23T22:48:04.105Z,27.73
2023-01-23T22:50:30.788Z,28.85
2023-01-23T22:52:57.497Z,27.85
2023-01-23T22:55:24.346Z,26.50
2023-01-23T22:57:52.933Z,25.90
2023-01-23T23:00:20.195Z,26.98
2023-01-23T23:02:46.943Z,26.73
2023-01-23T23:05:13.776Z,28.02
2023-01-23T23:07:40.709Z,26.98
2023-01-23T23:10:09.262Z,25.58
2023-01-23T23:12:36.078Z,26.42
2023-01-23T23:15:03.497Z,26.25
2023-01-23T23:17:30.528Z,25.90
2023-01-23T23:19:57.189Z,27.23
2023-01-23T23:22:23.903Z,28.02
2023-01-23T23:24:50.557Z,26.30
2023-01-23T23:27:17.233Z,28.38
2023-01-23T23:29:43.894Z,27.17
2023-01-23T23:32:10.596Z,26.27
2023-01-23T23:34:37.487Z,27.90
2023-01-23T23:37:04.370Z,27.77
2023-01-23T23:39:31.048Z,27.60
2023-01-23T23:41:58.487Z,27.25
2023-01-23T23:44:25.276Z,29.00
2023-01-23T23:46:51.949Z,28.80
2023-01-23T23:49:18.647Z,29.23
2023-01-23T23:51:45.334Z,27.52
2023-01-23T23:54:12.147Z,29.75
2023-01-23T23:56:38.951Z,28.85
2023-01-23T23:59:05.604Z,28.80
